Freedom — WDD5438 — position and weather

sailwx.info

Track history (hours):
 
Tides and Currents Weather Stations Pressure Air Temp Water Temp Dewpoint Dewpoint Depression Visibility Wind Speed Wind Dir Waves Ship Positions

Freedom

Owner: DRISCOLL, ROBIN JOHN, LOS ALTOS HILLS, CA. More information available from US FCC via Universal Licensing System and Coast Guard Vessel Documentation Center.

Last reported at 2017-Oct-28 19:00 UTC. Time now 2017-Nov-18 10:20 UTC.
Position N 37°52' W 122°27'.
Warning: this ship's position is 20 days out of date.

Length 17 m.

Type: Sailing vessel. MMSI: 367158390.

Date/timePositionNaut miles runAvg speedWind from/ knotsBaromVisibWave heightAir tempDewpointWater temp
2017-Oct-28 19:00N 37°52' W 122°27'4 7.7
2017-Oct-28 18:30N 37°48' W 122°26'  
2017-Oct-23 02:18N 37°48' W 122°27'0 1.2
2017-Oct-23 02:01N 37°49' W 122°27'4 7.4
2017-Oct-23 01:30N 37°52' W 122°28'0 0.1
2017-Oct-23 00:59N 37°52' W 122°28'0 0.0
2017-Oct-23 00:29N 37°52' W 122°28'0 0.0
2017-Oct-22 23:59N 37°52' W 122°28'0 0.0
2017-Oct-22 23:29N 37°52' W 122°28'0 0.0
2017-Oct-22 22:59N 37°52' W 122°28'0 0.8
2017-Oct-22 22:30N 37°52' W 122°27'1 1.9
2017-Oct-22 22:00N 37°51' W 122°27'2 4.5
2017-Oct-22 21:30N 37°49' W 122°25'2 3.9
2017-Oct-22 21:00N 37°51' W 122°27'0 0.7
2017-Oct-22 20:30N 37°51' W 122°27'0 0.7
2017-Oct-22 20:00N 37°51' W 122°27'0 0.3
2017-Oct-22 19:29N 37°51' W 122°27'1 2.1
2017-Oct-22 18:58N 37°50' W 122°26'2 3.4
2017-Oct-22 18:23N 37°48' W 122°27'0 0.0
2017-Oct-22 17:59N 37°48' W 122°27'0 0.0
2017-Oct-22 17:29N 37°48' W 122°27'0 0.0
2017-Oct-22 16:56N 37°48' W 122°27'  
Track history (hours):
 
Tides and Currents Weather Stations Pressure Air Temp Water Temp Dewpoint Dewpoint Depression Visibility Wind Speed Wind Dir Waves Ship Positions

Freedom

Owner: DRISCOLL, ROBIN JOHN, LOS ALTOS HILLS, CA. More information available from US FCC via Universal Licensing System and Coast Guard Vessel Documentation Center.

Last reported at 2017-Oct-28 19:00 UTC. Time now 2017-Nov-18 10:20 UTC.
Position N 37°52' W 122°27'.
Warning: this ship's position is 20 days out of date.

Length 17 m.

Type: Sailing vessel. MMSI: 367158390.

Date/timePositionNaut miles runAvg speedWind from/ knotsBaromVisibWave heightAir tempDewpointWater temp
2017-Oct-28 19:00N 37°52' W 122°27'4 7.7
2017-Oct-28 18:30N 37°48' W 122°26'  
2017-Oct-23 02:18N 37°48' W 122°27'0 1.2
2017-Oct-23 02:01N 37°49' W 122°27'4 7.4
2017-Oct-23 01:30N 37°52' W 122°28'0 0.1
2017-Oct-23 00:59N 37°52' W 122°28'0 0.0
2017-Oct-23 00:29N 37°52' W 122°28'0 0.0
2017-Oct-22 23:59N 37°52' W 122°28'0 0.0
2017-Oct-22 23:29N 37°52' W 122°28'0 0.0
2017-Oct-22 22:59N 37°52' W 122°28'0 0.8
2017-Oct-22 22:30N 37°52' W 122°27'1 1.9
2017-Oct-22 22:00N 37°51' W 122°27'2 4.5
2017-Oct-22 21:30N 37°49' W 122°25'2 3.9
2017-Oct-22 21:00N 37°51' W 122°27'0 0.7
2017-Oct-22 20:30N 37°51' W 122°27'0 0.7
2017-Oct-22 20:00N 37°51' W 122°27'0 0.3
2017-Oct-22 19:29N 37°51' W 122°27'1 2.1
2017-Oct-22 18:58N 37°50' W 122°26'2 3.4
2017-Oct-22 18:23N 37°48' W 122°27'0 0.0
2017-Oct-22 17:59N 37°48' W 122°27'0 0.0
2017-Oct-22 17:29N 37°48' W 122°27'0 0.0
2017-Oct-22 16:56N 37°48' W 122°27'  

Dump ship's entire track history